Time,TemperatureF,DewpointF,PressureIn,WindDirection,WindDirectionDegrees,WindSpeedMPH,WindSpeedGustMPH,Humidity,HourlyPrecipIn,Conditions,Clouds,dailyrainin,SoftwareType,DateUTC
2013-09-13 00:00:00,73.6,65.9,29.76,West,270,2.3,2.3,77,0.00,SCT,,0.00,WeatherDisplay:10.37,2013-09-13 04:00:00,
2013-09-13 00:01:00,73.6,65.9,29.76,West,270,2.3,2.3,77,0.00,SCT,,0.00,WeatherDisplay:10.37,2013-09-13 04:01:00,
2013-09-13 00:02:00,73.4,65.7,29.76,West,270,3.5,3.5,77,0.00,SCT,,0.00,WeatherDisplay:10.37,2013-09-13 04:02:00,
2013-09-13 00:03:00,73.4,66.1,29.76,West,270,3.5,3.5,78,0.00,SCT,,0.00,WeatherDisplay:10.37,2013-09-13 04:03:00,
2013-09-13 00:04:00,73.2,65.9,29.76,SW,225,2.3,2.3,78,0.00,SCT,,0.00,WeatherDisplay:10.37,2013-09-13 04:04:00,
2013-09-13 00:09:00,73.2,65.9,29.76,West,270,3.5,3.5,78,0.00,SCT,,0.00,WeatherDisplay:10.37,2013-09-13 04:09:00,
2013-09-13 00:14:00,72.9,65.6,29.76,SW,225,0.0,0.0,78,0.00,SCT,,0.00,WeatherDisplay:10.37,2013-09-13 04:14:00,
2013-09-13 00:19:00,72.7,65.4,29.76,SW,225,0.0,0.0,78,0.00,SCT,,0.00,WeatherDisplay:10.37,2013-09-13 04:19:00,
2013-09-13 00:24:00,72.3,65.1,29.76,SW,225,0.0,0.0,78,0.00,SCT,,0.00,WeatherDisplay:10.37,2013-09-13 04:24:00,
2013-09-13 00:29:00,72.1,65.6,29.76,SW,225,0.0,0.0,80,0.00,SCT,,0.00,WeatherDisplay:10.37,2013-09-13 04:29:00,
2013-09-13 00:34:00,71.8,65.6,29.76,SW,225,0.0,0.0,81,0.00,SCT,,0.00,WeatherDisplay:10.37,2013-09-13 04:34:00,
2013-09-13 00:39:00,71.4,65.6,29.76,East,90,0.0,0.0,82,0.00,SCT,,0.00,WeatherDisplay:10.37,2013-09-13 04:39:00,
2013-09-13 00:44:00,71.2,65.5,29.76,East,90,2.3,0.0,82,0.00,SCT,,0.00,WeatherDisplay:10.37,2013-09-13 04:44:00,
2013-09-13 00:49:00,70.9,65.5,29.76,East,90,1.1,0.0,83,0.00,SCT,,0.00,WeatherDisplay:10.37,2013-09-13 04:49:00,
2013-09-13 00:54:00,70.9,65.5,29.75,East,90,0.0,0.0,83,0.00,SCT,,0.00,WeatherDisplay:10.37,2013-09-13 04:54:00,
2013-09-13 01:00:00,70.7,65.6,29.75,East,90,0.0,0.0,84,0.00,SCT,,0.00,WeatherDisplay:10.37,2013-09-13 05:00:00,
2013-09-13 01:05:00,70.5,65.4,29.75,East,90,1.1,0.0,84,0.00,CLR,,0.00,WeatherDisplay:10.37,2013-09-13 05:05:00,
2013-09-13 01:10:00,70.3,65.3,29.75,East,90,0.0,0.0,84,0.00,CLR,,0.00,WeatherDisplay:10.37,2013-09-13 05:10:00,
2013-09-13 01:15:00,70.2,65.1,29.75,East,90,0.0,0.0,84,0.00,CLR,,0.00,WeatherDisplay:10.37,2013-09-13 05:15:00,
2013-09-13 01:20:00,70.2,65.1,29.75,NE,45,0.0,0.0,84,0.00,CLR,,0.00,WeatherDisplay:10.37,2013-09-13 05:20:00,
2013-09-13 01:25:00,70.0,65.3,29.75,NE,45,0.0,0.0,85,0.00,CLR,,0.00,WeatherDisplay:10.37,2013-09-13 05:25:00,
2013-09-13 01:30:00,69.8,65.1,29.75,NE,45,0.0,0.0,85,0.00,CLR,,0.00,WeatherDisplay:10.37,2013-09-13 05:30:00,
2013-09-13 01:35:00,69.4,64.7,29.75,NE,45,0.0,0.0,85,0.00,CLR,,0.00,WeatherDisplay:10.37,2013-09-13 05:35:00,
2013-09-13 01:40:00,69.3,64.9,29.74,NE,45,0.0,0.0,86,0.00,CLR,,0.00,WeatherDisplay:10.37,2013-09-13 05:40:00,
2013-09-13 01:45:00,69.1,65.0,29.75,West,270,1.1,1.1,87,0.00,CLR,,0.00,WeatherDisplay:10.37,2013-09-13 05:45:00,
2013-09-13 01:50:00,69.1,65.0,29.75,West,270,2.3,2.3,87,0.00,CLR,,0.00,WeatherDisplay:10.37,2013-09-13 05:50:00,
2013-09-13 01:55:00,69.3,65.2,29.75,SW,225,2.3,2.3,87,0.00,CLR,,0.00,WeatherDisplay:10.37,2013-09-13 05:55:00,
2013-09-13 02:00:00,69.3,64.9,29.75,West,270,3.5,3.5,86,0.00,CLR,,0.00,WeatherDisplay:10.37,2013-09-13 06:00:00,
2013-09-13 02:05:00,69.6,64.9,29.74,West,270,3.5,3.5,85,0.00,CLR,,0.00,WeatherDisplay:10.37,2013-09-13 06:05:00,
2013-09-13 02:10:00,69.8,65.1,29.74,SW,225,3.5,3.5,85,0.00,CLR,,0.00,WeatherDisplay:10.37,2013-09-13 06:10:00,
2013-09-13 02:15:00,69.8,64.7,29.74,West,270,3.5,3.5,84,0.00,CLR,,0.00,WeatherDisplay:10.37,2013-09-13 06:15:00,
2013-09-13 02:20:00,70.0,64.9,29.73,SW,225,3.5,3.5,84,0.00,BKN,,0.00,WeatherDisplay:10.37,2013-09-13 06:20:00,
2013-09-13 02:25:00,70.0,64.9,29.73,NW,315,3.5,3.5,84,0.00,BKN,,0.00,WeatherDisplay:10.37,2013-09-13 06:25:00,
2013-09-13 02:30:00,70.0,64.9,29.74,West,270,3.5,3.5,84,0.00,BKN,,0.00,WeatherDisplay:10.37,2013-09-13 06:30:00,
2013-09-13 02:35:00,70.2,65.1,29.73,SW,225,3.5,3.5,84,0.00,BKN,,0.00,WeatherDisplay:10.37,2013-09-13 06:35:00,
2013-09-13 02:40:00,70.2,65.1,29.73,SW,225,3.5,3.5,84,0.00,BKN,,0.00,WeatherDisplay:10.37,2013-09-13 06:40:00,
2013-09-13 02:45:00,70.3,64.9,29.72,WNW,292,3.5,3.5,83,0.00,BKN,,0.00,WeatherDisplay:10.37,2013-09-13 06:45:00,
2013-09-13 02:50:00,70.3,64.9,29.73,West,270,3.5,3.5,83,0.00,BKN,,0.00,WeatherDisplay:10.37,2013-09-13 06:50:00,
2013-09-13 02:55:00,70.3,64.9,29.73,West,270,3.5,3.5,83,0.00,BKN,,0.00,WeatherDisplay:10.37,2013-09-13 06:55:00,
2013-09-13 03:00:00,70.3,64.9,29.73,West,270,3.5,3.5,83,0.00,BKN,,0.00,WeatherDisplay:10.37,2013-09-13 07:00:00,
2013-09-13 03:05:00,70.2,64.8,29.73,West,270,3.5,3.5,83,0.00,SCT,,0.00,WeatherDisplay:10.37,2013-09-13 07:05:00,
2013-09-13 03:10:00,70.3,64.9,29.73,SW,225,3.5,3.5,83,0.00,SCT,,0.00,WeatherDisplay:10.37,2013-09-13 07:10:00,
2013-09-13 03:15:00,70.2,64.8,29.73,West,270,3.5,3.5,83,0.00,SCT,,0.00,WeatherDisplay:10.37,2013-09-13 07:15:00,
2013-09-13 03:20:00,70.2,64.8,29.73,West,270,3.5,3.5,83,0.00,SCT,,0.00,WeatherDisplay:10.37,2013-09-13 07:20:00,
2013-09-13 03:25:00,70.0,64.6,29.73,West,270,1.1,0.0,83,0.00,SCT,,0.00,WeatherDisplay:10.37,2013-09-13 07:25:00,
2013-09-13 03:30:00,69.6,64.6,29.73,West,270,0.0,0.0,84,0.00,SCT,,0.00,WeatherDisplay:10.37,2013-09-13 07:30:00,
2013-09-13 03:35:00,69.4,64.4,29.74,West,270,0.0,0.0,84,0.00,SCT,,0.00,WeatherDisplay:10.37,2013-09-13 07:35:00,
2013-09-13 03:40:00,69.3,64.6,29.73,North,0,0.0,0.0,85,0.00,SCT,,0.00,WeatherDisplay:10.37,2013-09-13 07:40:00,
2013-09-13 03:45:00,69.1,64.4,29.74,SW,225,0.0,0.0,85,0.00,SCT,,0.00,WeatherDisplay:10.37,2013-09-13 07:45:00,
2013-09-13 03:50:00,68.9,64.2,29.74,NW,315,0.0,0.0,85,0.00,SCT,,0.00,WeatherDisplay:10.37,2013-09-13 07:50:00,
2013-09-13 03:55:00,68.9,63.9,29.74,SW,225,0.0,0.0,84,0.00,SCT,,0.00,WeatherDisplay:10.37,2013-09-13 07:55:00,
2013-09-13 04:00:00,68.9,63.5,29.75,West,270,1.1,0.0,83,0.00,SCT,,0.00,WeatherDisplay:10.37,2013-09-13 08:00:00,
2013-09-13 04:05:00,68.7,63.0,29.75,NNW,338,3.5,3.5,82,0.00,OVC,,0.00,WeatherDisplay:10.37,2013-09-13 08:05:00,
2013-09-13 04:10:00,68.5,62.1,29.75,West,270,2.3,0.0,80,0.00,OVC,,0.00,WeatherDisplay:10.37,2013-09-13 08:10:00,
2013-09-13 04:15:00,68.4,61.6,29.75,South,180,3.8,3.8,79,0.00,OVC,,0.00,WeatherDisplay:10.37,2013-09-13 08:15:00,
2013-09-13 04:20:00,68.4,61.6,29.75,West,270,2.3,0.0,79,0.00,OVC,,0.00,WeatherDisplay:10.37,2013-09-13 08:20:00,
2013-09-13 04:25:00,68.2,61.8,29.75,West,270,1.1,0.0,80,0.00,OVC,,0.00,WeatherDisplay:10.37,2013-09-13 08:25:00,
2013-09-13 04:30:00,68.0,61.6,29.75,West,270,2.3,2.3,80,0.00,OVC,,0.00,WeatherDisplay:10.37,2013-09-13 08:30:00,
2013-09-13 04:35:00,67.8,61.4,29.75,West,270,0.0,0.0,80,0.00,OVC,,0.00,WeatherDisplay:10.37,2013-09-13 08:35:00,
2013-09-13 04:40:00,67.8,61.4,29.76,NW,315,1.1,0.0,80,0.00,OVC,,0.00,WeatherDisplay:10.37,2013-09-13 08:40:00,
2013-09-13 04:45:00,67.6,61.2,29.75,West,270,0.0,0.0,80,0.00,OVC,,0.00,WeatherDisplay:10.37,2013-09-13 08:45:00,
2013-09-13 04:50:00,67.6,61.2,29.76,West,270,1.6,0.0,80,0.00,OVC,,0.00,WeatherDisplay:10.37,2013-09-13 08:50:00,
2013-09-13 04:55:00,67.6,61.6,29.76,SW,225,1.1,1.1,81,0.00,OVC,,0.00,WeatherDisplay:10.37,2013-09-13 08:55:00,
2013-09-13 05:00:00,67.5,61.4,29.76,West,270,2.3,0.0,81,0.00,OVC,,0.00,WeatherDisplay:10.37,2013-09-13 09:00:00,
2013-09-13 05:05:00,67.5,61.1,29.76,West,270,1.1,0.0,80,0.00,OVC,,0.00,WeatherDisplay:10.37,2013-09-13 09:05:00,
2013-09-13 05:10:00,67.5,61.1,29.76,West,270,1.1,0.0,80,0.00,OVC,,0.00,WeatherDisplay:10.37,2013-09-13 09:10:00,
2013-09-13 05:15:00,67.5,61.1,29.76,West,270,0.0,0.0,80,0.00,OVC,,0.00,WeatherDisplay:10.37,2013-09-13 09:15:00,
2013-09-13 05:20:00,67.5,61.1,29.76,NW,315,0.0,0.0,80,0.00,OVC,,0.00,WeatherDisplay:10.37,2013-09-13 09:20:00,
2013-09-13 05:25:00,67.5,61.1,29.76,North,0,0.0,0.0,80,0.00,OVC,,0.00,WeatherDisplay:10.37,2013-09-13 09:25:00,
2013-09-13 05:30:00,67.3,60.9,29.76,North,0,0.0,0.0,80,0.00,OVC,,0.00,WeatherDisplay:10.37,2013-09-13 09:30:00,
2013-09-13 05:35:00,67.5,61.1,29.76,North,0,0.0,0.0,80,0.00,OVC,,0.00,WeatherDisplay:10.37,2013-09-13 09:35:00,
2013-09-13 05:40:00,67.3,60.9,29.77,SE,135,0.0,0.0,80,0.00,OVC,,0.00,WeatherDisplay:10.37,2013-09-13 09:40:00,
2013-09-13 05:45:00,67.3,60.9,29.76,SE,135,0.0,0.0,80,0.00,OVC,,0.00,WeatherDisplay:10.37,2013-09-13 09:45:00,
2013-09-13 05:50:00,67.1,61.1,29.76,SE,135,0.0,0.0,81,0.00,OVC,,0.00,WeatherDisplay:10.37,2013-09-13 09:50:00,
2013-09-13 05:55:00,66.9,60.9,29.76,SE,135,0.0,0.0,81,0.00,OVC,,0.00,WeatherDisplay:10.37,2013-09-13 09:55:00,
2013-09-13 06:00:00,66.7,61.1,29.76,NE,45,0.0,0.0,82,0.00,OVC,,0.00,WeatherDisplay:10.37,2013-09-13 10:00:00,
2013-09-13 06:05:00,66.4,61.1,29.77,NE,45,0.0,0.0,83,0.00,OVC,,0.00,WeatherDisplay:10.37,2013-09-13 10:05:00,
2013-09-13 06:10:00,66.2,61.2,29.76,SW,225,0.0,0.0,84,0.00,OVC,,0.00,WeatherDisplay:10.37,2013-09-13 10:10:00,
2013-09-13 06:15:00,66.2,60.9,29.76,North,0,0.0,0.0,83,0.00,OVC,,0.00,WeatherDisplay:10.37,2013-09-13 10:15:00,
2013-09-13 06:20:00,66.2,60.9,29.77,North,0,0.0,0.0,83,0.00,OVC,,0.00,WeatherDisplay:10.37,2013-09-13 10:20:00,
2013-09-13 06:25:00,66.0,60.4,29.76,West,270,0.0,0.0,82,0.00,OVC,,0.00,WeatherDisplay:10.37,2013-09-13 10:25:00,
2013-09-13 06:30:00,66.0,60.4,29.76,West,270,0.0,0.0,82,0.00,OVC,,0.00,WeatherDisplay:10.37,2013-09-13 10:30:00,
2013-09-13 06:35:00,66.0,60.4,29.76,NW,315,0.0,0.0,82,0.00,OVC,,0.00,WeatherDisplay:10.37,2013-09-13 10:35:00,
2013-09-13 06:40:00,66.0,60.4,29.76,NW,315,0.0,0.0,82,0.00,OVC,,0.00,WeatherDisplay:10.37,2013-09-13 10:40:00,
2013-09-13 06:45:00,65.8,60.2,29.77,NW,315,0.0,0.0,82,0.00,OVC,,0.00,WeatherDisplay:10.37,2013-09-13 10:45:00,
2013-09-13 06:50:00,65.7,60.0,29.77,NW,315,0.0,0.0,82,0.00,OVC,,0.00,WeatherDisplay:10.37,2013-09-13 10:50:00,
2013-09-13 06:55:00,65.7,60.0,29.77,NW,315,0.0,0.0,82,0.00,OVC,,0.00,WeatherDisplay:10.37,2013-09-13 10:55:00,
2013-09-13 07:00:00,65.5,60.2,29.77,West,270,0.0,0.0,83,0.00,OVC,,0.00,WeatherDisplay:10.37,2013-09-13 11:00:00,
2013-09-13 07:05:00,65.5,60.2,29.77,West,270,0.0,0.0,83,0.00,-RA,,0.00,WeatherDisplay:10.37,2013-09-13 11:05:00,
2013-09-13 07:10:00,65.5,60.2,29.77,West,270,0.0,0.0,83,0.00,-RA,,0.00,WeatherDisplay:10.37,2013-09-13 11:10:00,
2013-09-13 07:15:00,65.3,60.3,29.78,West,270,0.0,0.0,84,0.00,-RA,,0.00,WeatherDisplay:10.37,2013-09-13 11:15:00,
2013-09-13 07:20:00,65.3,60.3,29.78,West,270,0.0,0.0,84,0.00,-RA,,0.00,WeatherDisplay:10.37,2013-09-13 11:20:00,
2013-09-13 07:25:00,65.3,60.3,29.79,West,270,3.5,3.5,84,0.00,-RA,,0.00,WeatherDisplay:10.37,2013-09-13 11:25:00,
2013-09-13 07:30:00,65.3,60.3,29.79,West,270,2.3,2.3,84,0.00,-RA,,0.00,WeatherDisplay:10.37,2013-09-13 11:30:00,
2013-09-13 07:35:00,65.1,60.2,29.79,West,270,1.1,1.1,84,0.00,-RA,,0.00,WeatherDisplay:10.37,2013-09-13 11:35:00,
2013-09-13 07:40:00,65.1,60.5,29.79,West,270,2.3,2.3,85,0.00,-RA,,0.00,WeatherDisplay:10.37,2013-09-13 11:40:00,
2013-09-13 07:45:00,64.9,60.6,29.79,West,270,2.3,2.3,86,0.00,-RA,,0.00,WeatherDisplay:10.37,2013-09-13 11:45:00,
2013-09-13 07:50:00,64.9,60.6,29.79,West,270,2.3,2.3,86,0.00,-RA,,0.00,WeatherDisplay:10.37,2013-09-13 11:50:00,
2013-09-13 07:55:00,64.9,60.6,29.79,West,270,1.1,0.0,86,0.00,-RA,,0.00,WeatherDisplay:10.37,2013-09-13 11:55:00,
2013-09-13 08:00:00,64.9,60.6,29.79,SW,225,1.1,0.0,86,0.00,-RA,,0.00,WeatherDisplay:10.37,2013-09-13 12:00:00,
2013-09-13 08:05:00,65.1,60.8,29.79,SW,225,0.0,0.0,86,0.00,OVC,,0.00,WeatherDisplay:10.37,2013-09-13 12:05:00,
2013-09-13 08:10:00,65.1,60.8,29.79,West,270,2.3,2.3,86,0.00,OVC,,0.00,WeatherDisplay:10.37,2013-09-13 12:10:00,
2013-09-13 08:15:00,65.1,60.8,29.79,West,270,2.3,0.0,86,0.00,OVC,,0.00,WeatherDisplay:10.37,2013-09-13 12:15:00,
2013-09-13 08:20:00,65.3,61.0,29.79,West,270,1.1,1.1,86,0.00,OVC,,0.00,WeatherDisplay:10.37,2013-09-13 12:20:00,
2013-09-13 08:25:00,65.3,61.0,29.79,West,270,2.3,2.3,86,0.00,OVC,,0.00,WeatherDisplay:10.37,2013-09-13 12:25:00,
2013-09-13 08:30:00,65.5,61.2,29.80,SW,225,2.3,2.3,86,0.00,OVC,,0.00,WeatherDisplay:10.37,2013-09-13 12:30:00,
2013-09-13 08:35:00,65.7,61.0,29.80,West,270,2.3,0.0,85,0.00,OVC,,0.00,WeatherDisplay:10.37,2013-09-13 12:35:00,
2013-09-13 08:40:00,66.0,61.0,29.80,East,90,2.3,0.0,84,0.00,OVC,,0.00,WeatherDisplay:10.37,2013-09-13 12:40:00,
2013-09-13 08:45:00,66.7,61.1,29.80,NW,315,3.5,0.0,82,0.00,OVC,,0.00,WeatherDisplay:10.37,2013-09-13 12:45:00,
2013-09-13 08:50:00,66.7,59.3,29.80,West,270,3.5,3.5,77,0.00,OVC,,0.00,WeatherDisplay:10.37,2013-09-13 12:50:00,
2013-09-13 08:55:00,66.7,58.9,29.80,West,270,3.5,0.0,76,0.00,OVC,,0.00,WeatherDisplay:10.37,2013-09-13 12:55:00,
2013-09-13 09:00:00,67.5,58.5,29.81,West,270,3.5,3.5,73,0.00,OVC,,0.00,WeatherDisplay:10.37,2013-09-13 13:00:00,
2013-09-13 09:05:00,70.7,60.0,29.80,West,270,1.1,1.1,69,0.00,OVC,,0.00,WeatherDisplay:10.37,2013-09-13 13:05:00,
2013-09-13 09:10:00,71.8,58.9,29.80,West,270,2.3,2.3,64,0.00,OVC,,0.00,WeatherDisplay:10.37,2013-09-13 13:10:00,
2013-09-13 09:15:00,73.0,58.3,29.81,West,270,3.5,3.5,60,0.00,OVC,,0.00,WeatherDisplay:10.37,2013-09-13 13:15:00,
2013-09-13 09:20:00,74.3,58.6,29.80,SW,225,3.5,3.5,58,0.00,BKN,,0.00,WeatherDisplay:10.37,2013-09-13 13:20:00,
2013-09-13 09:25:00,75.0,58.8,29.81,West,270,2.3,2.3,57,0.00,BKN,,0.00,WeatherDisplay:10.37,2013-09-13 13:25:00,
2013-09-13 09:30:00,76.1,59.3,29.81,West,270,2.3,2.3,56,0.00,BKN,,0.00,WeatherDisplay:10.37,2013-09-13 13:30:00,
2013-09-13 09:35:00,76.5,59.1,29.81,West,270,2.3,2.3,55,0.00,BKN,,0.00,WeatherDisplay:10.37,2013-09-13 13:35:00,
2013-09-13 09:40:00,76.8,58.4,29.80,North,0,2.3,2.3,53,0.00,BKN,,0.00,WeatherDisplay:10.37,2013-09-13 13:40:00,
2013-09-13 09:45:00,76.8,57.9,29.81,West,270,3.5,3.5,52,0.00,BKN,,0.00,WeatherDisplay:10.37,2013-09-13 13:45:00,
2013-09-13 09:50:00,75.6,56.7,29.81,West,270,4.6,4.6,52,0.00,BKN,,0.00,WeatherDisplay:10.37,2013-09-13 13:50:00,
2013-09-13 09:55:00,75.0,57.2,29.81,NW,315,4.6,4.6,54,0.00,BKN,,0.00,WeatherDisplay:10.37,2013-09-13 13:55:00,
2013-09-13 10:00:00,75.9,57.6,29.81,West,270,3.5,0.0,53,0.00,BKN,,0.00,WeatherDisplay:10.37,2013-09-13 14:00:00,
2013-09-13 10:05:00,76.8,57.3,29.81,West,270,4.6,4.6,51,0.00,SCT,,0.00,WeatherDisplay:10.37,2013-09-13 14:05:00,
2013-09-13 10:10:00,77.0,56.9,29.81,West,270,3.5,3.5,50,0.00,SCT,,0.00,WeatherDisplay:10.37,2013-09-13 14:10:00,
2013-09-13 10:15:00,76.5,56.4,29.81,West,270,5.8,5.8,50,0.00,SCT,,0.00,WeatherDisplay:10.37,2013-09-13 14:15:00,
2013-09-13 10:20:00,75.4,56.0,29.82,West,270,5.8,5.8,51,0.00,SCT,,0.00,WeatherDisplay:10.37,2013-09-13 14:20:00,
2013-09-13 10:25:00,75.7,56.9,29.81,WNW,292,3.5,3.5,52,0.00,SCT,,0.00,WeatherDisplay:10.37,2013-09-13 14:25:00,
2013-09-13 10:30:00,75.6,56.2,29.81,West,270,3.5,3.5,51,0.00,SCT,,0.00,WeatherDisplay:10.37,2013-09-13 14:30:00,
2013-09-13 10:35:00,75.7,56.3,29.82,NW,315,5.8,5.8,51,0.00,SCT,,0.00,WeatherDisplay:10.37,2013-09-13 14:35:00,
2013-09-13 10:40:00,76.5,56.4,29.82,West,270,3.5,3.5,50,0.00,SCT,,0.00,WeatherDisplay:10.37,2013-09-13 14:40:00,
2013-09-13 10:45:00,75.6,56.2,29.82,ESE,112,3.5,3.5,51,0.00,SCT,,0.00,WeatherDisplay:10.37,2013-09-13 14:45:00,
2013-09-13 10:50:00,73.9,55.2,29.81,West,270,3.5,0.0,52,0.00,SCT,,0.00,WeatherDisplay:10.37,2013-09-13 14:50:00,
2013-09-13 10:55:00,73.6,56.9,29.82,West,270,2.2,2.2,56,0.00,SCT,,0.00,WeatherDisplay:10.37,2013-09-13 14:55:00,
2013-09-13 11:00:00,73.0,55.9,29.81,West,270,3.5,3.5,55,0.00,SCT,,0.00,WeatherDisplay:10.37,2013-09-13 15:00:00,
2013-09-13 11:05:00,73.6,56.4,29.81,West,270,3.5,3.5,55,0.00,CLR,,0.00,WeatherDisplay:10.37,2013-09-13 15:05:00,
2013-09-13 11:10:00,74.5,54.6,29.82,West,270,4.5,4.5,50,0.00,CLR,,0.00,WeatherDisplay:10.37,2013-09-13 15:10:00,
2013-09-13 11:15:00,73.0,54.4,29.82,SW,225,2.3,0.0,52,0.00,CLR,,0.00,WeatherDisplay:10.37,2013-09-13 15:15:00,
2013-09-13 11:20:00,72.9,55.2,29.82,SW,225,2.3,0.0,54,0.00,CLR,,0.00,WeatherDisplay:10.37,2013-09-13 15:20:00,
2013-09-13 11:25:00,72.5,54.9,29.82,SW,225,3.5,0.0,54,0.00,CLR,,0.00,WeatherDisplay:10.37,2013-09-13 15:25:00,
2013-09-13 11:30:00,72.7,54.0,29.82,West,270,5.8,5.8,52,0.00,CLR,,0.00,WeatherDisplay:10.37,2013-09-13 15:30:00,
2013-09-13 11:35:00,74.1,53.7,29.82,West,270,5.8,5.8,49,0.00,CLR,,0.00,WeatherDisplay:10.37,2013-09-13 15:35:00,
2013-09-13 11:40:00,75.4,53.7,29.82,West,270,5.8,5.8,47,0.00,CLR,,0.00,WeatherDisplay:10.37,2013-09-13 15:40:00,
2013-09-13 11:45:00,76.6,54.3,29.81,NW,315,3.5,3.5,46,0.00,CLR,,0.00,WeatherDisplay:10.37,2013-09-13 15:45:00,
2013-09-13 11:50:00,77.2,53.6,29.81,West,270,4.6,4.6,44,0.00,CLR,,0.00,WeatherDisplay:10.37,2013-09-13 15:50:00,
2013-09-13 11:55:00,77.7,53.4,29.81,West,270,5.8,5.8,43,0.00,CLR,,0.00,WeatherDisplay:10.37,2013-09-13 15:55:00,
2013-09-13 12:00:00,78.1,53.1,29.81,West,270,3.5,3.5,42,0.00,CLR,,0.00,WeatherDisplay:10.37,2013-09-13 16:00:00,
2013-09-13 12:05:00,78.1,51.8,29.81,SW,225,5.8,5.8,40,0.00,CLR,,0.00,WeatherDisplay:10.37,2013-09-13 16:05:00,
2013-09-13 12:10:00,77.4,53.7,29.81,West,270,8.1,8.1,44,0.00,CLR,,0.00,WeatherDisplay:10.37,2013-09-13 16:10:00,
2013-09-13 12:15:00,78.1,53.1,29.81,West,270,3.5,3.5,42,0.00,CLR,,0.00,WeatherDisplay:10.37,2013-09-13 16:15:00,
2013-09-13 12:20:00,78.8,53.1,29.81,SW,225,5.4,5.4,41,0.00,FEW,,0.00,WeatherDisplay:10.37,2013-09-13 16:20:00,
2013-09-13 12:25:00,77.5,52.6,29.82,West,270,3.5,3.5,42,0.00,FEW,,0.00,WeatherDisplay:10.37,2013-09-13 16:25:00,
2013-09-13 12:30:00,76.5,52.3,29.82,West,270,3.5,3.5,43,0.00,FEW,,0.00,WeatherDisplay:10.37,2013-09-13 16:30:00,
2013-09-13 12:35:00,75.9,52.4,29.81,West,270,2.3,2.3,44,0.00,FEW,,0.00,WeatherDisplay:10.37,2013-09-13 16:35:00,
2013-09-13 12:40:00,76.3,52.8,29.81,NW,315,2.3,2.3,44,0.00,FEW,,0.00,WeatherDisplay:10.37,2013-09-13 16:40:00,
2013-09-13 12:45:00,78.4,52.8,29.81,West,270,4.6,4.6,41,0.00,FEW,,0.00,WeatherDisplay:10.37,2013-09-13 16:45:00,
2013-09-13 12:50:00,78.6,52.3,29.80,SW,225,5.8,5.8,40,0.00,FEW,,0.00,WeatherDisplay:10.37,2013-09-13 16:50:00,
2013-09-13 12:55:00,77.2,52.3,29.81,SW,225,3.5,3.5,42,0.00,FEW,,0.00,WeatherDisplay:10.37,2013-09-13 16:55:00,
2013-09-13 13:00:00,77.5,53.3,29.80,West,270,3.5,3.5,43,0.00,FEW,,0.00,WeatherDisplay:10.37,2013-09-13 17:00:00,
2013-09-13 13:05:00,77.4,52.5,29.80,West,270,3.5,3.5,42,0.00,CLR,,0.00,WeatherDisplay:10.37,2013-09-13 17:05:00,
2013-09-13 13:10:00,76.5,52.3,29.81,West,270,3.5,3.5,43,0.00,CLR,,0.00,WeatherDisplay:10.37,2013-09-13 17:10:00,
2013-09-13 13:15:00,75.2,52.4,29.81,West,270,2.3,2.3,45,0.00,CLR,,0.00,WeatherDisplay:10.37,2013-09-13 17:15:00,
2013-09-13 13:20:00,74.5,52.3,29.80,West,270,2.3,0.0,46,0.00,CLR,,0.00,WeatherDisplay:10.37,2013-09-13 17:20:00,
2013-09-13 13:25:00,76.1,53.8,29.80,NW,315,3.5,3.5,46,0.00,CLR,,0.00,WeatherDisplay:10.37,2013-09-13 17:25:00,
2013-09-13 13:30:00,77.4,51.8,29.80,West,270,4.6,4.6,41,0.00,CLR,,0.00,WeatherDisplay:10.37,2013-09-13 17:30:00,
2013-09-13 13:35:00,77.7,52.8,29.79,SW,225,3.5,3.5,42,0.00,CLR,,0.00,WeatherDisplay:10.37,2013-09-13 17:35:00,
2013-09-13 13:40:00,78.1,51.8,29.79,SW,225,3.5,3.5,40,0.00,CLR,,0.00,WeatherDisplay:10.37,2013-09-13 17:40:00,
2013-09-13 13:45:00,77.2,51.7,29.79,NW,315,3.5,0.0,41,0.00,CLR,,0.00,WeatherDisplay:10.37,2013-09-13 17:45:00,
2013-09-13 13:50:00,77.0,52.1,29.80,NW,315,2.3,2.3,42,0.00,CLR,,0.00,WeatherDisplay:10.37,2013-09-13 17:50:00,
2013-09-13 13:55:00,77.0,53.4,29.80,SW,225,3.5,3.5,44,0.00,CLR,,0.00,WeatherDisplay:10.37,2013-09-13 17:55:00,
2013-09-13 14:00:00,76.3,51.5,29.80,SW,225,5.8,5.8,42,0.00,CLR,,0.00,WeatherDisplay:10.37,2013-09-13 18:00:00,
2013-09-13 14:05:00,76.5,52.9,29.80,West,270,3.5,3.5,44,0.00,CLR,,0.00,WeatherDisplay:10.37,2013-09-13 18:05:00,
2013-09-13 14:10:00,76.8,52.0,29.80,West,270,4.6,4.6,42,0.00,CLR,,0.00,WeatherDisplay:10.37,2013-09-13 18:10:00,
2013-09-13 14:15:00,77.0,53.4,29.80,NW,315,2.3,2.3,44,0.00,CLR,,0.00,WeatherDisplay:10.37,2013-09-13 18:15:00,
2013-09-13 14:20:00,78.1,53.8,29.80,West,270,4.6,4.6,43,0.00,BKN,,0.00,WeatherDisplay:10.37,2013-09-13 18:20:00,
2013-09-13 14:25:00,78.1,52.5,29.80,West,270,3.5,3.5,41,0.00,BKN,,0.00,WeatherDisplay:10.37,2013-09-13 18:25:00,
2013-09-13 14:30:00,75.9,51.2,29.80,West,270,5.8,5.8,42,0.00,BKN,,0.00,WeatherDisplay:10.37,2013-09-13 18:30:00,
2013-09-13 14:35:00,74.5,51.7,29.80,West,270,3.5,3.5,45,0.00,BKN,,0.00,WeatherDisplay:10.37,2013-09-13 18:35:00,
2013-09-13 14:40:00,73.8,51.7,29.81,SW,225,3.5,3.5,46,0.00,BKN,,0.00,WeatherDisplay:10.37,2013-09-13 18:40:00,
2013-09-13 14:45:00,73.2,51.2,29.81,SW,225,4.6,4.6,46,0.00,BKN,,0.00,WeatherDisplay:10.37,2013-09-13 18:45:00,
2013-09-13 14:50:00,73.2,51.2,29.81,SW,225,3.5,3.5,46,0.00,BKN,,0.00,WeatherDisplay:10.37,2013-09-13 18:50:00,
2013-09-13 14:55:00,74.1,52.6,29.81,SW,225,4.6,4.6,47,0.00,BKN,,0.00,WeatherDisplay:10.37,2013-09-13 18:55:00,
2013-09-13 15:00:00,77.4,53.7,29.80,SW,225,3.5,3.5,44,0.00,BKN,,0.00,WeatherDisplay:10.37,2013-09-13 19:00:00,
2013-09-13 15:05:00,78.4,52.8,29.80,SW,225,5.8,5.8,41,0.00,BKN,,0.00,WeatherDisplay:10.37,2013-09-13 19:05:00,
2013-09-13 15:10:00,78.4,53.4,29.80,West,270,3.5,3.5,42,0.00,BKN,,0.00,WeatherDisplay:10.37,2013-09-13 19:10:00,
2013-09-13 15:15:00,77.0,52.1,29.80,West,270,2.3,2.3,42,0.00,BKN,,0.00,WeatherDisplay:10.37,2013-09-13 19:15:00,
2013-09-13 15:20:00,75.6,53.3,29.81,SW,225,1.1,2.2,46,0.00,BKN,,0.00,WeatherDisplay:10.37,2013-09-13 19:20:00,
2013-09-13 15:25:00,73.8,53.4,29.81,West,270,2.3,2.3,49,0.00,BKN,,0.00,WeatherDisplay:10.37,2013-09-13 19:25:00,
2013-09-13 15:30:00,73.2,52.9,29.80,West,270,3.5,3.5,49,0.00,BKN,,0.00,WeatherDisplay:10.37,2013-09-13 19:30:00,
2013-09-13 15:35:00,73.6,53.2,29.80,West,270,3.5,3.5,49,0.00,BKN,,0.00,WeatherDisplay:10.37,2013-09-13 19:35:00,
2013-09-13 15:40:00,74.3,53.9,29.80,NW,315,2.3,2.3,49,0.00,BKN,,0.00,WeatherDisplay:10.37,2013-09-13 19:40:00,
2013-09-13 15:45:00,74.8,52.1,29.79,SW,225,3.5,0.0,45,0.00,BKN,,0.00,WeatherDisplay:10.37,2013-09-13 19:45:00,
2013-09-13 15:50:00,74.8,52.1,29.79,West,270,4.6,4.6,45,0.00,BKN,,0.00,WeatherDisplay:10.37,2013-09-13 19:50:00,
2013-09-13 15:55:00,75.2,52.4,29.79,West,270,1.1,0.0,45,0.00,BKN,,0.00,WeatherDisplay:10.37,2013-09-13 19:55:00,
2013-09-13 16:00:00,75.0,52.8,29.79,West,270,1.1,0.0,46,0.00,BKN,,0.00,WeatherDisplay:10.37,2013-09-13 20:00:00,
2013-09-13 16:05:00,74.8,53.3,29.79,East,90,2.3,2.3,47,0.00,FEW,,0.00,WeatherDisplay:10.37,2013-09-13 20:05:00,
2013-09-13 16:10:00,75.7,52.3,29.79,West,270,2.3,2.3,44,0.00,FEW,,0.00,WeatherDisplay:10.37,2013-09-13 20:10:00,
2013-09-13 16:15:00,76.5,51.0,29.79,SW,225,3.5,3.5,41,0.00,FEW,,0.00,WeatherDisplay:10.37,2013-09-13 20:15:00,
2013-09-13 16:20:00,75.9,51.2,29.79,West,270,5.8,5.8,42,0.00,SCT,,0.00,WeatherDisplay:10.37,2013-09-13 20:20:00,
2013-09-13 16:25:00,73.9,53.0,29.80,West,270,4.6,4.6,48,0.00,SCT,,0.00,WeatherDisplay:10.37,2013-09-13 20:25:00,
2013-09-13 16:30:00,72.7,54.6,29.80,West,270,3.5,3.5,53,0.00,SCT,,0.00,WeatherDisplay:10.37,2013-09-13 20:30:00,
2013-09-13 16:35:00,72.3,54.7,29.81,West,270,5.8,5.8,54,0.00,SCT,,0.00,WeatherDisplay:10.37,2013-09-13 20:35:00,
2013-09-13 16:40:00,71.4,52.9,29.80,NW,315,4.6,4.6,52,0.00,SCT,,0.00,WeatherDisplay:10.37,2013-09-13 20:40:00,
2013-09-13 16:45:00,70.5,53.1,29.80,North,0,3.5,3.5,54,0.00,SCT,,0.00,WeatherDisplay:10.37,2013-09-13 20:45:00,
2013-09-13 16:50:00,70.5,54.1,29.80,West,270,3.5,3.5,56,0.00,SCT,,0.00,WeatherDisplay:10.37,2013-09-13 20:50:00,
2013-09-13 16:55:00,70.5,54.1,29.80,West,270,8.1,8.1,56,0.00,SCT,,0.00,WeatherDisplay:10.37,2013-09-13 20:55:00,
2013-09-13 17:00:00,69.8,53.9,29.80,West,270,3.5,3.5,57,0.00,SCT,,0.00,WeatherDisplay:10.37,2013-09-13 21:00:00,
2013-09-13 17:05:00,69.3,54.3,29.80,WNW,292,4.6,4.6,59,0.00,SCT,,0.00,WeatherDisplay:10.37,2013-09-13 21:05:00,
2013-09-13 17:10:00,69.1,54.6,29.80,NW,315,4.6,4.6,60,0.00,SCT,,0.00,WeatherDisplay:10.37,2013-09-13 21:10:00,
2013-09-13 17:15:00,69.1,55.1,29.80,SW,225,5.8,5.8,61,0.00,SCT,,0.00,WeatherDisplay:10.37,2013-09-13 21:15:00,
2013-09-13 17:20:00,69.3,54.8,29.80,NW,315,5.8,5.8,60,0.00,-RA,,0.00,WeatherDisplay:10.37,2013-09-13 21:20:00,
2013-09-13 17:25:00,69.3,54.3,29.80,West,270,5.8,5.8,59,0.00,-RA,,0.00,WeatherDisplay:10.37,2013-09-13 21:25:00,
2013-09-13 17:30:00,69.4,54.5,29.80,West,270,5.8,5.8,59,0.00,-RA,,0.00,WeatherDisplay:10.37,2013-09-13 21:30:00,
2013-09-13 17:35:00,69.4,54.9,29.81,West,270,3.5,4.5,60,0.00,-RA,,0.00,WeatherDisplay:10.37,2013-09-13 21:35:00,
2013-09-13 17:40:00,69.1,55.1,29.81,West,270,3.5,3.5,61,0.00,-RA,,0.00,WeatherDisplay:10.37,2013-09-13 21:40:00,
2013-09-13 17:45:00,69.1,55.1,29.82,West,270,5.8,5.8,61,0.00,-RA,,0.00,WeatherDisplay:10.37,2013-09-13 21:45:00,
2013-09-13 17:50:00,68.7,55.2,29.82,West,270,5.8,5.8,62,0.00,-RA,,0.00,WeatherDisplay:10.37,2013-09-13 21:50:00,
2013-09-13 17:55:00,68.7,54.7,29.82,West,270,4.6,4.6,61,0.00,-RA,,0.00,WeatherDisplay:10.37,2013-09-13 21:55:00,
2013-09-13 18:00:00,68.5,55.0,29.82,North,0,3.5,3.5,62,0.00,-RA,,0.00,WeatherDisplay:10.37,2013-09-13 22:00:00,
2013-09-13 18:05:00,68.7,53.8,29.82,West,270,4.6,4.6,59,0.00,-RA,,0.00,WeatherDisplay:10.37,2013-09-13 22:05:00,
2013-09-13 18:10:00,68.5,53.6,29.83,West,270,3.5,3.5,59,0.00,-RA,,0.00,WeatherDisplay:10.37,2013-09-13 22:10:00,
2013-09-13 18:15:00,68.4,53.0,29.83,West,270,5.8,5.8,58,0.00,-RA,,0.00,WeatherDisplay:10.37,2013-09-13 22:15:00,
2013-09-13 18:20:00,68.2,53.3,29.84,West,270,1.1,1.1,59,0.00,BKN,,0.00,WeatherDisplay:10.37,2013-09-13 22:20:00,
2013-09-13 18:25:00,68.0,54.0,29.84,NW,315,3.5,3.5,61,0.00,BKN,,0.00,WeatherDisplay:10.37,2013-09-13 22:25:00,
2013-09-13 18:30:00,67.5,53.5,29.84,West,270,3.5,3.5,61,0.00,BKN,,0.00,WeatherDisplay:10.37,2013-09-13 22:30:00,
2013-09-13 18:35:00,67.1,53.6,29.85,West,270,3.5,3.5,62,0.00,BKN,,0.00,WeatherDisplay:10.37,2013-09-13 22:35:00,
2013-09-13 18:40:00,66.9,53.9,29.85,NW,315,3.5,3.5,63,0.00,BKN,,0.00,WeatherDisplay:10.37,2013-09-13 22:40:00,
2013-09-13 18:45:00,66.6,54.0,29.85,SW,225,3.5,0.0,64,0.00,BKN,,0.00,WeatherDisplay:10.37,2013-09-13 22:45:00,
2013-09-13 18:50:00,66.2,53.7,29.85,NW,315,2.3,0.0,64,0.00,BKN,,0.00,WeatherDisplay:10.37,2013-09-13 22:50:00,
2013-09-13 18:55:00,65.8,53.7,29.86,SW,225,1.1,1.1,65,0.00,BKN,,0.00,WeatherDisplay:10.37,2013-09-13 22:55:00,
2013-09-13 19:00:00,65.5,53.0,29.86,North,0,2.3,2.3,64,0.00,BKN,,0.00,WeatherDisplay:10.37,2013-09-13 23:00:00,
2013-09-13 19:05:00,65.1,52.6,29.86,SW,225,2.3,2.3,64,0.00,BKN,,0.00,WeatherDisplay:10.37,2013-09-13 23:05:00,
2013-09-13 19:10:00,64.8,52.3,29.86,West,270,3.5,0.0,64,0.00,BKN,,0.00,WeatherDisplay:10.37,2013-09-13 23:10:00,
2013-09-13 19:15:00,64.6,52.5,29.87,SW,225,1.1,0.0,65,0.00,BKN,,0.00,WeatherDisplay:10.37,2013-09-13 23:15:00,
2013-09-13 19:20:00,64.4,52.4,29.87,SE,135,1.1,0.0,65,0.00,SCT,,0.00,WeatherDisplay:10.37,2013-09-13 23:20:00,
2013-09-13 19:25:00,64.0,52.4,29.87,SW,225,2.3,0.0,66,0.00,SCT,,0.00,WeatherDisplay:10.37,2013-09-13 23:25:00,
2013-09-13 19:30:00,63.9,52.3,29.87,SW,225,1.1,0.0,66,0.00,SCT,,0.00,WeatherDisplay:10.37,2013-09-13 23:30:00,
2013-09-13 19:35:00,63.7,52.1,29.88,West,270,2.3,0.0,66,0.00,SCT,,0.00,WeatherDisplay:10.37,2013-09-13 23:35:00,
2013-09-13 19:40:00,63.5,52.3,29.88,SW,225,1.1,0.0,67,0.00,SCT,,0.00,WeatherDisplay:10.37,2013-09-13 23:40:00,
2013-09-13 19:45:00,63.3,52.2,29.88,SW,225,0.0,0.0,67,0.00,SCT,,0.00,WeatherDisplay:10.37,2013-09-13 23:45:00,
2013-09-13 19:50:00,63.3,51.8,29.89,West,270,2.3,2.3,66,0.00,SCT,,0.00,WeatherDisplay:10.37,2013-09-13 23:50:00,
2013-09-13 19:55:00,63.3,50.9,29.89,West,270,2.3,2.3,64,0.00,SCT,,0.00,WeatherDisplay:10.37,2013-09-13 23:55:00,
2013-09-13 20:00:00,63.3,50.9,29.89,West,270,3.5,0.0,64,0.00,SCT,,0.00,WeatherDisplay:10.37,2013-09-14 00:00:00,
2013-09-13 20:05:00,63.1,50.8,29.90,West,270,2.3,0.0,64,0.00,BKN,,0.00,WeatherDisplay:10.37,2013-09-14 00:05:00,
2013-09-13 20:10:00,63.1,50.3,29.90,South,180,0.0,1.6,63,0.00,BKN,,0.00,WeatherDisplay:10.37,2013-09-14 00:10:00,
2013-09-13 20:15:00,63.0,50.2,29.90,SW,225,2.3,0.0,63,0.00,BKN,,0.00,WeatherDisplay:10.37,2013-09-14 00:15:00,
2013-09-13 20:20:00,62.8,50.0,29.90,NE,45,0.0,0.0,63,0.00,BKN,,0.00,WeatherDisplay:10.37,2013-09-14 00:20:00,
2013-09-13 20:25:00,62.4,50.1,29.90,NW,315,1.1,0.0,64,0.00,BKN,,0.00,WeatherDisplay:10.37,2013-09-14 00:25:00,
2013-09-13 20:30:00,62.1,50.2,29.91,NE,45,3.5,0.0,65,0.00,BKN,,0.00,WeatherDisplay:10.37,2013-09-14 00:30:00,
2013-09-13 20:35:00,61.9,49.6,29.91,NE,45,1.1,0.0,64,0.00,BKN,,0.00,WeatherDisplay:10.37,2013-09-14 00:35:00,
2013-09-13 20:40:00,61.7,49.8,29.91,North,0,2.3,0.0,65,0.00,BKN,,0.00,WeatherDisplay:10.37,2013-09-14 00:40:00,
2013-09-13 20:45:00,61.5,49.6,29.91,NE,45,2.3,0.0,65,0.00,BKN,,0.00,WeatherDisplay:10.37,2013-09-14 00:45:00,
2013-09-13 20:50:00,61.5,49.6,29.91,ENE,68,3.5,0.0,65,0.00,BKN,,0.00,WeatherDisplay:10.37,2013-09-14 00:50:00,
2013-09-13 20:55:00,61.3,49.5,29.91,West,270,1.1,0.0,65,0.00,BKN,,0.00,WeatherDisplay:10.37,2013-09-14 00:55:00,
2013-09-13 21:00:00,61.2,49.7,29.92,North,0,1.1,0.0,66,0.00,BKN,,0.00,WeatherDisplay:10.37,2013-09-14 01:00:00,
2013-09-13 21:05:00,60.8,49.4,29.92,North,0,0.0,0.0,66,0.00,CLR,,0.00,WeatherDisplay:10.37,2013-09-14 01:05:00,
2013-09-13 21:10:00,60.8,49.8,29.92,West,270,1.1,0.0,67,0.00,CLR,,0.00,WeatherDisplay:10.37,2013-09-14 01:10:00,
2013-09-13 21:15:00,60.6,49.6,29.92,West,270,1.1,0.0,67,0.00,CLR,,0.00,WeatherDisplay:10.37,2013-09-14 01:15:00,
2013-09-13 21:20:00,60.6,50.0,29.93,West,270,2.3,2.3,68,0.00,CLR,,0.00,WeatherDisplay:10.37,2013-09-14 01:20:00,
2013-09-13 21:25:00,60.6,50.0,29.92,West,270,2.3,0.0,68,0.00,CLR,,0.00,WeatherDisplay:10.37,2013-09-14 01:25:00,
2013-09-13 21:30:00,60.4,49.8,29.92,West,270,1.1,0.0,68,0.00,CLR,,0.00,WeatherDisplay:10.37,2013-09-14 01:30:00,
2013-09-13 21:35:00,60.4,49.8,29.93,West,270,0.0,0.0,68,0.00,CLR,,0.00,WeatherDisplay:10.37,2013-09-14 01:35:00,
2013-09-13 21:40:00,60.1,49.5,29.93,East,90,1.6,0.0,68,0.00,CLR,,0.00,WeatherDisplay:10.37,2013-09-14 01:40:00,
2013-09-13 21:45:00,59.9,49.7,29.94,East,90,1.1,0.0,69,0.00,CLR,,0.00,WeatherDisplay:10.37,2013-09-14 01:45:00,
2013-09-13 21:50:00,59.5,49.7,29.94,East,90,2.3,0.0,70,0.00,CLR,,0.00,WeatherDisplay:10.37,2013-09-14 01:50:00,
2013-09-13 21:55:00,59.4,49.6,29.94,NE,45,0.0,0.0,70,0.00,CLR,,0.00,WeatherDisplay:10.37,2013-09-14 01:55:00,
2013-09-13 22:00:00,59.0,50.0,29.94,SW,225,0.0,0.0,72,0.00,CLR,,0.00,WeatherDisplay:10.37,2013-09-14 02:00:00,
2013-09-13 22:05:00,58.8,49.8,29.94,SW,225,0.0,0.0,72,0.00,CLR,,0.00,WeatherDisplay:10.37,2013-09-14 02:05:00,
2013-09-13 22:10:00,58.6,50.0,29.95,SW,225,0.0,0.0,73,0.00,CLR,,0.00,WeatherDisplay:10.37,2013-09-14 02:10:00,
2013-09-13 22:15:00,58.5,49.8,29.95,SE,135,1.1,0.0,73,0.00,CLR,,0.00,WeatherDisplay:10.37,2013-09-14 02:15:00,
2013-09-13 22:20:00,58.3,50.0,29.95,SE,135,0.0,0.0,74,0.00,CLR,,0.00,WeatherDisplay:10.37,2013-09-14 02:20:00,
2013-09-13 22:25:00,58.1,50.2,29.95,SE,135,1.1,0.0,75,0.00,CLR,,0.00,WeatherDisplay:10.37,2013-09-14 02:25:00,
2013-09-13 22:30:00,57.9,50.4,29.95,SW,225,0.0,0.0,76,0.00,CLR,,0.00,WeatherDisplay:10.37,2013-09-14 02:30:00,
2013-09-13 22:35:00,57.7,50.2,29.95,SW,225,0.0,0.0,76,0.00,CLR,,0.00,WeatherDisplay:10.37,2013-09-14 02:35:00,
2013-09-13 22:40:00,57.6,50.4,29.95,East,90,2.3,2.3,77,0.00,CLR,,0.00,WeatherDisplay:10.37,2013-09-14 02:40:00,
2013-09-13 22:45:00,57.4,50.2,29.95,East,90,1.1,1.1,77,0.00,CLR,,0.00,WeatherDisplay:10.37,2013-09-14 02:45:00,
2013-09-13 22:50:00,57.2,50.1,29.95,East,90,0.0,0.0,77,0.00,CLR,,0.00,WeatherDisplay:10.37,2013-09-14 02:50:00,
2013-09-13 22:55:00,57.2,50.4,29.95,West,270,1.1,0.0,78,0.00,CLR,,0.00,WeatherDisplay:10.37,2013-09-14 02:55:00,
2013-09-13 23:00:00,57.6,50.4,29.95,West,270,2.3,0.0,77,0.00,CLR,,0.00,WeatherDisplay:10.37,2013-09-14 03:00:00,
2013-09-13 23:05:00,57.6,50.4,29.95,North,0,0.0,0.0,77,0.00,OVC,,0.00,WeatherDisplay:10.37,2013-09-14 03:05:00,
2013-09-13 23:10:00,57.6,50.8,29.95,West,270,0.0,0.0,78,0.00,OVC,,0.00,WeatherDisplay:10.37,2013-09-14 03:10:00,
2013-09-13 23:15:00,57.6,50.4,29.95,West,270,0.0,0.0,77,0.00,OVC,,0.00,WeatherDisplay:10.37,2013-09-14 03:15:00,
2013-09-13 23:20:00,57.6,50.4,29.95,West,270,0.0,0.0,77,0.00,OVC,,0.00,WeatherDisplay:10.37,2013-09-14 03:20:00,
2013-09-13 23:26:00,57.7,50.6,29.95,North,0,2.3,0.0,77,0.00,OVC,,0.00,WeatherDisplay:10.37,2013-09-14 03:26:00,
2013-09-13 23:31:00,57.9,50.4,29.95,North,0,1.1,0.0,76,0.00,OVC,,0.00,WeatherDisplay:10.37,2013-09-14 03:31:00,
2013-09-13 23:36:00,57.7,49.9,29.96,West,270,1.1,0.0,75,0.00,OVC,,0.00,WeatherDisplay:10.37,2013-09-14 03:36:00,
2013-09-13 23:41:00,57.9,50.0,29.95,West,270,0.0,0.0,75,0.00,OVC,,0.00,WeatherDisplay:10.37,2013-09-14 03:41:00,
2013-09-13 23:46:00,57.9,49.7,29.96,NW,315,1.1,0.0,74,0.00,OVC,,0.00,WeatherDisplay:10.37,2013-09-14 03:46:00,
2013-09-13 23:51:00,57.9,49.7,29.96,SW,225,1.1,0.0,74,0.00,OVC,,0.00,WeatherDisplay:10.37,2013-09-14 03:51:00,
2013-09-13 23:56:00,57.7,49.1,29.96,West,270,0.0,0.0,73,0.00,OVC,,0.00,WeatherDisplay:10.37,2013-09-14 03:56:00,